Time;durP1;ratioP1;P1;durP2;ratioP2;P2;SDS_P1;SDS_P2;PMS_P1;PMS_P2;Temp;Humidity;BMP_temperature;BMP_pressure;BME280_temperature;BME280_humidity;BME280_pressure;Samples;Min_cycle;Max_cycle;Signal;HPM_P1;HPM_P2
2022/03/28 00:01:21;;;;;;;13.25;7.03;;;;;;;;;;5089931;28;20035;-76
2022/03/28 00:03:47;;;;;;;12.98;7.15;;;;;;;;;;5087698;28;20063;-76
2022/03/28 00:06:13;;;;;;;13.05;7.47;;;;;;;;;;5089566;28;20032;-76
2022/03/28 00:08:39;;;;;;;12.75;7.78;;;;;;;;;;5089373;28;20059;-76
2022/03/28 00:11:08;;;;;;;10.55;6.90;;;;;;;;;;5089387;28;20433;-77
2022/03/28 00:13:35;;;;;;;12.27;8.05;;;;;;;;;;5099851;28;20035;-76
2022/03/28 00:16:02;;;;;;;12.05;7.60;;;;;;;;;;5109799;28;20028;-76
2022/03/28 00:18:28;;;;;;;14.65;8.27;;;;;;;;;;5109782;28;20051;-77
2022/03/28 00:20:55;;;;;;;12.20;7.57;;;;;;;;;;5109851;28;21098;-77
2022/03/28 00:23:21;;;;;;;13.65;7.70;;;;;;;;;;5109737;28;20487;-76
2022/03/28 00:25:47;;;;;;;13.00;7.75;;;;;;;;;;5109599;28;20032;-76
2022/03/28 00:28:14;;;;;;;11.35;7.55;;;;;;;;;;5109406;28;20027;-76
2022/03/28 00:30:40;;;;;;;12.20;7.72;;;;;;;;;;5107598;28;20373;-76
2022/03/28 00:33:07;;;;;;;12.15;8.05;;;;;;;;;;5109466;28;20035;-76
2022/03/28 00:35:33;;;;;;;13.55;7.85;;;;;;;;;;5109644;28;20491;-77
2022/03/28 00:37:59;;;;;;;13.07;7.93;;;;;;;;;;5109421;28;20027;-76
2022/03/28 00:40:28;;;;;;;14.57;8.07;;;;;;;;;;5108122;28;20126;-76
2022/03/28 00:42:54;;;;;;;14.02;8.35;;;;;;;;;;5109370;28;20041;-76
2022/03/28 00:45:20;;;;;;;13.02;7.90;;;;;;;;;;5109370;28;20496;-76
2022/03/28 00:47:47;;;;;;;12.88;8.50;;;;;;;;;;5106421;28;20027;-77
2022/03/28 00:50:13;;;;;;;13.02;8.07;;;;;;;;;;5088974;28;20032;-76
2022/03/28 00:52:39;;;;;;;16.95;8.25;;;;;;;;;;5089203;28;20054;-76
2022/03/28 00:55:07;;;;;;;12.38;8.65;;;;;;;;;;5092550;28;20040;-76
2022/03/28 00:57:34;;;;;;;12.77;8.85;;;;;;;;;;5091960;28;20043;-76
2022/03/28 01:00:03;;;;;;;15.10;9.23;;;;;;;;;;5091508;28;20039;-76
2022/03/28 01:02:28;;;;;;;17.38;9.27;;;;;;;;;;5093152;28;20384;-76
2022/03/28 01:04:54;;;;;;;13.70;9.60;;;;;;;;;;5093122;28;20175;-76
2022/03/28 01:07:20;;;;;;;13.02;9.07;;;;;;;;;;5093053;28;20143;-76
2022/03/28 01:09:46;;;;;;;14.00;9.02;;;;;;;;;;5093129;28;20023;-77
2022/03/28 01:12:12;;;;;;;17.25;10.13;;;;;;;;;;5093174;28;20116;-75
2022/03/28 01:14:41;;;;;;;15.18;9.77;;;;;;;;;;5093084;28;20064;-76
2022/03/28 01:19:52;;;;;;;14.10;8.70;;;;;;;;;;5093181;28;20481;-77
2022/03/28 01:22:18;;;;;;;15.63;9.45;;;;;;;;;;5093070;28;20055;-76
2022/03/28 01:24:45;;;;;;;18.02;9.77;;;;;;;;;;5092842;28;20549;-76
2022/03/28 01:27:12;;;;;;;14.25;9.40;;;;;;;;;;5095248;28;20028;-76
2022/03/28 01:29:38;;;;;;;14.57;9.68;;;;;;;;;;5092429;28;20028;-77
2022/03/28 01:32:04;;;;;;;17.38;9.63;;;;;;;;;;5091332;28;20095;-75
2022/03/28 01:34:30;;;;;;;15.32;9.70;;;;;;;;;;5091036;28;20417;-77
2022/03/28 01:36:56;;;;;;;18.48;10.35;;;;;;;;;;5091003;28;20020;-77
2022/03/28 01:39:22;;;;;;;16.70;9.50;;;;;;;;;;5090787;28;20062;-76
2022/03/28 01:41:48;;;;;;;17.95;10.10;;;;;;;;;;5090931;28;20028;-77
2022/03/28 01:44:14;;;;;;;17.33;10.35;;;;;;;;;;5090777;28;20047;-77
2022/03/28 01:46:41;;;;;;;15.32;9.27;;;;;;;;;;5089778;28;20047;-76
2022/03/28 01:49:06;;;;;;;15.18;9.63;;;;;;;;;;5092062;28;20028;-76
2022/03/28 01:51:32;;;;;;;18.60;9.50;;;;;;;;;;5092135;28;20032;-76
2022/03/28 01:53:59;;;;;;;15.70;9.55;;;;;;;;;;5092091;28;20031;-76
2022/03/28 01:56:26;;;;;;;13.98;9.63;;;;;;;;;;5092932;28;20043;-76
2022/03/28 01:58:52;;;;;;;15.25;9.27;;;;;;;;;;5092422;28;20366;-76
2022/03/28 02:01:18;;;;;;;16.63;9.07;;;;;;;;;;5092154;28;20067;-76
2022/03/28 02:03:43;;;;;;;15.23;9.32;;;;;;;;;;5091933;28;20433;-76
2022/03/28 02:06:09;;;;;;;14.85;8.32;;;;;;;;;;5090239;28;20059;-77
2022/03/28 02:08:35;;;;;;;15.82;9.32;;;;;;;;;;5092571;28;20051;-77
2022/03/28 02:11:01;;;;;;;15.65;10.23;;;;;;;;;;5092271;28;20052;-76
2022/03/28 02:13:27;;;;;;;15.13;9.80;;;;;;;;;;5092767;28;20100;-76
2022/03/28 02:15:53;;;;;;;15.05;9.38;;;;;;;;;;5090772;28;20072;-76
2022/03/28 02:18:19;;;;;;;15.88;9.25;;;;;;;;;;5091993;28;20503;-76
2022/03/28 02:20:45;;;;;;;19.67;9.70;;;;;;;;;;5093727;28;20047;-75
2022/03/28 02:23:11;;;;;;;15.48;9.48;;;;;;;;;;5111981;28;20032;-76
2022/03/28 02:25:39;;;;;;;13.90;9.43;;;;;;;;;;5111922;28;20123;-76
2022/03/28 02:28:05;;;;;;;17.30;9.32;;;;;;;;;;5111856;28;20023;-76
2022/03/28 02:30:31;;;;;;;15.73;10.25;;;;;;;;;;5111645;28;20031;-76
2022/03/28 02:32:58;;;;;;;19.92;9.05;;;;;;;;;;5111758;28;20028;-76
2022/03/28 02:35:25;;;;;;;15.10;9.43;;;;;;;;;;5111589;28;20388;-76
2022/03/28 02:37:50;;;;;;;15.45;10.10;;;;;;;;;;5111431;28;20069;-76
2022/03/28 02:40:17;;;;;;;17.70;10.32;;;;;;;;;;5111213;28;20035;-76
2022/03/28 02:42:43;;;;;;;15.95;9.38;;;;;;;;;;5111631;28;20023;-77
2022/03/28 02:45:10;;;;;;;20.20;10.18;;;;;;;;;;5111257;28;20032;-76
2022/03/28 02:47:36;;;;;;;20.58;9.77;;;;;;;;;;5111262;28;20039;-76
2022/03/28 02:50:03;;;;;;;18.38;10.18;;;;;;;;;;5109043;28;20032;-76
2022/03/28 02:52:29;;;;;;;17.75;9.45;;;;;;;;;;5090939;28;20110;-77
2022/03/28 02:54:55;;;;;;;16.05;10.02;;;;;;;;;;5090840;28;20059;-78
2022/03/28 02:57:21;;;;;;;19.90;10.02;;;;;;;;;;5105027;28;20027;-76
2022/03/28 02:59:47;;;;;;;16.15;9.70;;;;;;;;;;5090521;28;20507;-76
2022/03/28 03:02:13;;;;;;;15.73;10.10;;;;;;;;;;5090734;28;20051;-76
2022/03/28 03:04:38;;;;;;;17.92;10.38;;;;;;;;;;5090578;28;20046;-76
2022/03/28 03:07:04;;;;;;;19.23;11.05;;;;;;;;;;5090356;28;20144;-76
2022/03/28 03:09:30;;;;;;;21.70;11.55;;;;;;;;;;5090481;28;20127;-76
2022/03/28 03:11:56;;;;;;;17.52;10.70;;;;;;;;;;5090546;28;20034;-76
2022/03/28 03:14:23;;;;;;;20.90;11.52;;;;;;;;;;5090634;28;20493;-76
2022/03/28 03:16:50;;;;;;;16.98;10.25;;;;;;;;;;5089639;28;20031;-76
2022/03/28 03:19:16;;;;;;;20.50;10.60;;;;;;;;;;5090706;28;20028;-76
2022/03/28 03:21:42;;;;;;;19.17;10.88;;;;;;;;;;5090464;28;20032;-77
2022/03/28 03:24:08;;;;;;;17.95;10.95;;;;;;;;;;5090481;28;20035;-76
2022/03/28 03:26:34;;;;;;;18.73;11.35;;;;;;;;;;5090318;28;20465;-76
2022/03/28 03:29:00;;;;;;;20.02;10.77;;;;;;;;;;5090324;28;20035;-76
2022/03/28 03:31:29;;;;;;;19.90;11.45;;;;;;;;;;5091404;28;20525;-76
2022/03/28 03:33:55;;;;;;;20.73;10.52;;;;;;;;;;5088386;28;20043;-77
2022/03/28 03:36:21;;;;;;;17.58;11.13;;;;;;;;;;5090170;28;20059;-77
2022/03/28 03:38:47;;;;;;;17.45;10.98;;;;;;;;;;5090222;28;20039;-77
2022/03/28 03:41:13;;;;;;;18.65;10.93;;;;;;;;;;5090015;28;20051;-76
2022/03/28 03:43:39;;;;;;;20.77;10.85;;;;;;;;;;5088550;28;20062;-76
2022/03/28 03:46:04;;;;;;;19.27;11.98;;;;;;;;;;5090175;28;20643;-76
2022/03/28 03:48:30;;;;;;;18.50;10.57;;;;;;;;;;5090216;28;20055;-76
2022/03/28 03:50:56;;;;;;;19.48;11.02;;;;;;;;;;5089940;28;20043;-77
2022/03/28 03:53:22;;;;;;;19.45;11.30;;;;;;;;;;5090068;28;20062;-77
2022/03/28 03:55:48;;;;;;;19.15;11.60;;;;;;;;;;5089839;28;20059;-77
2022/03/28 03:58:14;;;;;;;21.40;11.32;;;;;;;;;;5089780;28;20465;-77
2022/03/28 04:00:40;;;;;;;18.95;11.35;;;;;;;;;;5087620;28;20046;-77
2022/03/28 04:03:06;;;;;;;22.60;11.68;;;;;;;;;;5089785;28;20039;-77
2022/03/28 04:05:32;;;;;;;23.98;12.45;;;;;;;;;;5087562;28;20035;-77
2022/03/28 04:07:59;;;;;;;19.65;11.77;;;;;;;;;;5089460;28;20027;-76
2022/03/28 04:10:26;;;;;;;19.90;11.75;;;;;;;;;;5089538;28;20028;-75
2022/03/28 04:12:52;;;;;;;21.20;11.90;;;;;;;;;;5087391;28;20051;-75
2022/03/28 04:15:18;;;;;;;18.33;11.55;;;;;;;;;;5089391;28;20031;-76
2022/03/28 04:17:45;;;;;;;22.27;12.27;;;;;;;;;;5089346;28;20024;-77
2022/03/28 04:20:13;;;;;;;19.45;11.38;;;;;;;;;;5089198;28;20043;-76
2022/03/28 04:22:40;;;;;;;19.45;12.00;;;;;;;;;;5109195;28;20050;-75
2022/03/28 04:25:10;;;;;;;20.55;12.32;;;;;;;;;;5109462;28;20039;-76
2022/03/28 04:27:37;;;;;;;19.25;11.60;;;;;;;;;;5109306;28;20035;-76
2022/03/28 04:30:05;;;;;;;17.67;11.02;;;;;;;;;;5109637;28;20020;-76
2022/03/28 04:32:30;;;;;;;21.95;12.05;;;;;;;;;;5109426;28;20028;-76
2022/03/28 04:34:56;;;;;;;23.73;12.77;;;;;;;;;;5109470;28;20476;-76
2022/03/28 04:37:25;;;;;;;20.58;12.63;;;;;;;;;;5109253;28;20062;-77
2022/03/28 04:39:54;;;;;;;21.40;11.70;;;;;;;;;;5109506;28;20496;-77
2022/03/28 04:42:20;;;;;;;21.45;12.80;;;;;;;;;;5107562;28;20535;-76
2022/03/28 04:44:46;;;;;;;19.70;11.95;;;;;;;;;;5107700;28;20067;-77
2022/03/28 04:47:12;;;;;;;20.50;12.05;;;;;;;;;;5107422;28;20448;-77
2022/03/28 04:49:38;;;;;;;20.40;12.25;;;;;;;;;;5109307;28;20047;-75
2022/03/28 04:52:04;;;;;;;18.85;11.55;;;;;;;;;;5107377;28;20067;-76
2022/03/28 04:54:30;;;;;;;20.52;12.30;;;;;;;;;;5109149;28;20031;-78
2022/03/28 04:56:56;;;;;;;20.17;11.70;;;;;;;;;;5106934;28;20042;-75
2022/03/28 04:59:22;;;;;;;24.52;13.52;;;;;;;;;;5103340;28;20078;-73
2022/03/28 05:01:47;;;;;;;23.08;12.82;;;;;;;;;;5088989;28;20032;-76
2022/03/28 05:04:13;;;;;;;20.70;11.65;;;;;;;;;;5089046;28;20097;-74
2022/03/28 05:06:39;;;;;;;20.48;11.30;;;;;;;;;;5088769;28;20059;-75
2022/03/28 05:09:05;;;;;;;19.95;11.85;;;;;;;;;;5088683;28;20421;-75
2022/03/28 05:11:31;;;;;;;20.73;10.65;;;;;;;;;;5088804;28;20060;-74
2022/03/28 05:14:00;;;;;;;19.02;11.88;;;;;;;;;;5089043;28;20068;-79
2022/03/28 05:16:26;;;;;;;18.88;12.10;;;;;;;;;;5089162;28;20032;-76
2022/03/28 05:18:52;;;;;;;20.48;11.38;;;;;;;;;;5088978;28;20030;-80
2022/03/28 05:21:18;;;;;;;19.88;11.35;;;;;;;;;;5088927;28;20433;-79
2022/03/28 05:23:46;;;;;;;19.25;12.25;;;;;;;;;;5089080;28;20059;-76
2022/03/28 05:26:11;;;;;;;52.00;28.45;;;;;;;;;;5102122;28;20036;-77
2022/03/28 05:28:37;;;;;;;30.38;16.05;;;;;;;;;;5107374;28;20067;-77
2022/03/28 05:31:03;;;;;;;25.45;14.43;;;;;;;;;;5107436;28;20051;-77
2022/03/28 05:33:30;;;;;;;25.15;12.90;;;;;;;;;;5107363;28;20039;-77
2022/03/28 05:35:56;;;;;;;24.23;12.52;;;;;;;;;;5107930;28;20039;-77
2022/03/28 05:38:23;;;;;;;22.35;12.80;;;;;;;;;;5107109;28;20540;-76
2022/03/28 05:40:49;;;;;;;24.60;12.43;;;;;;;;;;5091242;28;20380;-76
2022/03/28 05:43:16;;;;;;;21.92;12.35;;;;;;;;;;5092533;28;20384;-76
2022/03/28 05:45:42;;;;;;;22.92;13.15;;;;;;;;;;5092419;28;20034;-76
2022/03/28 05:48:08;;;;;;;23.33;12.07;;;;;;;;;;5090037;28;20051;-76
2022/03/28 05:50:34;;;;;;;25.55;12.52;;;;;;;;;;5092444;28;20034;-77
2022/03/28 05:53:00;;;;;;;20.58;11.30;;;;;;;;;;5092469;28;20687;-76
2022/03/28 05:55:26;;;;;;;22.75;11.52;;;;;;;;;;5092364;28;20469;-76
2022/03/28 05:57:52;;;;;;;18.17;10.48;;;;;;;;;;5092254;28;20774;-76
2022/03/28 06:00:18;;;;;;;19.08;10.80;;;;;;;;;;5091297;28;20044;-76
2022/03/28 06:02:44;;;;;;;19.00;10.90;;;;;;;;;;5092237;28;20042;-77
2022/03/28 06:05:12;;;;;;;19.70;11.10;;;;;;;;;;5092302;28;20376;-77
2022/03/28 06:07:38;;;;;;;22.80;11.52;;;;;;;;;;5091927;28;20043;-76
2022/03/28 06:10:04;;;;;;;20.10;11.27;;;;;;;;;;5091946;28;20039;-75
2022/03/28 06:12:31;;;;;;;17.95;11.30;;;;;;;;;;5092003;28;20130;-76
2022/03/28 06:14:57;;;;;;;21.48;11.32;;;;;;;;;;5093806;28;20046;-76
2022/03/28 06:17:25;;;;;;;17.08;10.95;;;;;;;;;;5107841;28;20042;-76
2022/03/28 06:19:52;;;;;;;16.10;10.38;;;;;;;;;;5105122;28;20035;-77
2022/03/28 06:22:18;;;;;;;21.52;10.90;;;;;;;;;;5106333;28;20030;-76
2022/03/28 06:24:45;;;;;;;20.30;10.77;;;;;;;;;;5106601;28;20047;-77
2022/03/28 06:27:11;;;;;;;26.77;10.77;;;;;;;;;;5108893;28;20024;-77
2022/03/28 06:29:38;;;;;;;18.73;10.40;;;;;;;;;;5111785;28;20027;-77
2022/03/28 06:32:04;;;;;;;15.75;9.75;;;;;;;;;;5111538;28;20380;-77
2022/03/28 06:34:31;;;;;;;16.25;10.48;;;;;;;;;;5111565;28;20039;-77
2022/03/28 06:36:57;;;;;;;16.45;9.95;;;;;;;;;;5111530;28;20027;-77
2022/03/28 06:39:24;;;;;;;19.33;10.68;;;;;;;;;;5111495;28;20028;-77
2022/03/28 06:41:50;;;;;;;15.15;10.60;;;;;;;;;;5111206;28;20054;-77
2022/03/28 06:44:17;;;;;;;15.30;9.73;;;;;;;;;;5111883;28;20031;-77
2022/03/28 06:46:44;;;;;;;14.30;9.88;;;;;;;;;;5111143;28;20028;-77
2022/03/28 06:49:11;;;;;;;16.08;10.13;;;;;;;;;;5111209;28;20480;-77
2022/03/28 06:51:37;;;;;;;14.52;9.75;;;;;;;;;;5109080;28;20036;-76
2022/03/28 06:54:05;;;;;;;33.08;22.08;;;;;;;;;;5105417;28;20039;-76
2022/03/28 06:56:31;;;;;;;23.63;14.20;;;;;;;;;;5107738;28;20036;-76
2022/03/28 06:58:57;;;;;;;18.83;10.93;;;;;;;;;;5092440;28;20035;-76
2022/03/28 07:01:23;;;;;;;17.02;11.13;;;;;;;;;;5101696;27;20122;-76
2022/03/28 07:03:49;;;;;;;20.75;11.30;;;;;;;;;;5108921;28;20067;-77
2022/03/28 07:06:15;;;;;;;22.73;11.63;;;;;;;;;;5109281;28;20039;-78
2022/03/28 07:08:41;;;;;;;23.42;11.75;;;;;;;;;;5110797;28;20084;-77
2022/03/28 07:11:06;;;;;;;20.75;11.15;;;;;;;;;;5109631;28;20122;-77
2022/03/28 07:13:32;;;;;;;22.20;11.30;;;;;;;;;;5110738;28;20127;-77
2022/03/28 07:15:58;;;;;;;18.35;10.85;;;;;;;;;;5110237;28;20068;-77
2022/03/28 07:18:24;;;;;;;18.63;10.68;;;;;;;;;;5110777;28;20027;-76
2022/03/28 07:20:50;;;;;;;18.98;11.15;;;;;;;;;;5110801;28;20019;-77
2022/03/28 07:23:17;;;;;;;19.05;11.23;;;;;;;;;;5111245;28;20027;-76
2022/03/28 07:25:44;;;;;;;15.38;10.73;;;;;;;;;;5110441;28;20023;-78
2022/03/28 07:28:12;;;;;;;20.52;11.35;;;;;;;;;;5110312;28;20023;-77
2022/03/28 07:30:40;;;;;;;20.33;11.98;;;;;;;;;;5110432;28;20054;-77
2022/03/28 07:33:06;;;;;;;15.85;10.80;;;;;;;;;;5110429;28;20028;-79
2022/03/28 07:35:35;;;;;;;15.60;10.95;;;;;;;;;;5110210;28;20034;-80
2022/03/28 07:38:02;;;;;;;20.15;10.40;;;;;;;;;;5110184;28;20020;-77
2022/03/28 07:40:28;;;;;;;24.75;10.65;;;;;;;;;;5110383;28;20039;-77
2022/03/28 07:42:54;;;;;;;17.13;11.27;;;;;;;;;;5101330;27;20035;-79
2022/03/28 07:45:23;;;;;;;21.35;10.85;;;;;;;;;;5109613;27;20472;-79
2022/03/28 07:47:49;;;;;;;22.05;11.80;;;;;;;;;;5108780;27;20042;-80
2022/03/28 07:50:16;;;;;;;20.23;11.50;;;;;;;;;;5122632;27;20146;-79
2022/03/28 07:52:42;;;;;;;20.13;10.48;;;;;;;;;;5128490;27;20035;-80
2022/03/28 07:55:11;;;;;;;21.55;10.90;;;;;;;;;;5128395;27;20116;-79
2022/03/28 07:57:38;;;;;;;15.88;10.18;;;;;;;;;;5129019;27;20038;-79
2022/03/28 08:00:12;;;;;;;19.80;10.38;;;;;;;;;;5129288;27;20027;-79
2022/03/28 08:02:39;;;;;;;17.23;10.88;;;;;;;;;;5127965;27;20023;-78
2022/03/28 08:05:07;;;;;;;20.95;11.38;;;;;;;;;;5128424;27;20687;-79
2022/03/28 08:07:34;;;;;;;22.65;11.55;;;;;;;;;;5128105;27;20119;-80
2022/03/28 08:10:01;;;;;;;20.05;10.68;;;;;;;;;;5128320;27;20027;-79
2022/03/28 08:12:28;;;;;;;18.27;11.23;;;;;;;;;;5126552;27;20071;-78
2022/03/28 08:14:54;;;;;;;22.40;13.25;;;;;;;;;;5128343;27;20034;-79
2022/03/28 08:17:20;;;;;;;20.13;11.48;;;;;;;;;;5128240;27;20031;-79
2022/03/28 08:19:46;;;;;;;20.15;12.07;;;;;;;;;;5126678;27;20419;-78
2022/03/28 08:22:14;;;;;;;17.48;11.25;;;;;;;;;;5128288;27;20034;-78
2022/03/28 08:24:40;;;;;;;19.92;10.80;;;;;;;;;;5128009;27;20842;-81
2022/03/28 08:27:06;;;;;;;17.08;10.75;;;;;;;;;;5120270;27;20288;-80
2022/03/28 08:29:32;;;;;;;17.70;10.80;;;;;;;;;;5106594;28;20527;-78
2022/03/28 08:32:00;;;;;;;20.85;11.48;;;;;;;;;;5106164;28;20040;-80
2022/03/28 08:34:26;;;;;;;19.05;11.13;;;;;;;;;;5107090;28;20698;-75
2022/03/28 08:36:52;;;;;;;24.02;11.95;;;;;;;;;;5108306;28;20192;-77
2022/03/28 08:39:18;;;;;;;19.88;10.75;;;;;;;;;;5129939;27;20122;-78
2022/03/28 08:41:47;;;;;;;14.05;10.15;;;;;;;;;;5129915;27;20066;-79
2022/03/28 08:44:13;;;;;;;17.20;10.13;;;;;;;;;;5130026;28;20019;-78
2022/03/28 08:46:43;;;;;;;17.83;10.57;;;;;;;;;;5128979;28;20095;-79
2022/03/28 08:49:10;;;;;;;20.08;11.68;;;;;;;;;;5128049;28;20230;-78
2022/03/28 08:51:36;;;;;;;19.45;12.05;;;;;;;;;;5128857;28;20031;-77
2022/03/28 08:54:03;;;;;;;21.77;11.70;;;;;;;;;;5129296;28;20023;-76
2022/03/28 08:56:30;;;;;;;22.13;12.10;;;;;;;;;;5129257;28;20105;-79
2022/03/28 08:58:56;;;;;;;18.95;11.32;;;;;;;;;;5129146;28;20379;-78
2022/03/28 09:01:23;;;;;;;15.18;10.50;;;;;;;;;;5096408;28;20039;-78
2022/03/28 09:03:49;;;;;;;14.73;10.95;;;;;;;;;;5088836;28;20118;-79
2022/03/28 09:06:31;;;;;;;18.15;11.25;;;;;;;;;;5089340;28;20365;-78
2022/03/28 09:09:26;;;;;;;15.40;10.68;;;;;;;;;;5088750;28;20047;-78
2022/03/28 09:11:53;;;;;;;13.55;10.90;;;;;;;;;;5088925;28;20024;-78
2022/03/28 09:14:25;;;;;;;15.50;11.15;;;;;;;;;;5088230;28;20044;-78
2022/03/28 09:17:04;;;;;;;14.23;11.20;;;;;;;;;;5092876;28;20131;-76
2022/03/28 09:19:53;;;;;;;14.70;11.10;;;;;;;;;;5092879;28;20020;-78
2022/03/28 09:22:29;;;;;;;16.00;11.60;;;;;;;;;;5092784;28;20028;-76
2022/03/28 09:25:01;;;;;;;16.75;11.35;;;;;;;;;;5092523;28;20046;-76
2022/03/28 09:27:32;;;;;;;18.13;10.65;;;;;;;;;;5092694;28;20032;-77
2022/03/28 09:30:11;;;;;;;15.05;11.02;;;;;;;;;;5092625;28;20024;-78
2022/03/28 09:32:47;;;;;;;17.13;11.05;;;;;;;;;;5092742;28;20031;-78
2022/03/28 09:35:22;;;;;;;15.15;9.77;;;;;;;;;;5092626;28;20031;-78
2022/03/28 09:37:55;;;;;;;16.02;11.13;;;;;;;;;;5090555;28;20032;-78
2022/03/28 09:40:41;;;;;;;18.67;10.85;;;;;;;;;;5092588;28;20039;-78
2022/03/28 09:43:22;;;;;;;17.77;11.05;;;;;;;;;;5092725;28;20027;-78
2022/03/28 09:45:51;;;;;;;16.95;11.07;;;;;;;;;;5092263;28;20015;-77
2022/03/28 09:48:19;;;;;;;13.45;10.60;;;;;;;;;;5093498;28;20511;-77
2022/03/28 09:50:48;;;;;;;15.50;11.15;;;;;;;;;;5092363;28;20032;-76
2022/03/28 09:53:18;;;;;;;14.57;11.38;;;;;;;;;;5091954;28;20035;-77
2022/03/28 09:55:49;;;;;;;13.20;11.13;;;;;;;;;;5092127;28;20407;-77
2022/03/28 09:58:47;;;;;;;15.70;11.30;;;;;;;;;;5091818;28;20024;-77
2022/03/28 10:01:24;;;;;;;13.57;11.05;;;;;;;;;;5091905;28;20030;-77
2022/03/28 10:03:53;;;;;;;13.25;11.05;;;;;;;;;;5092023;28;20376;-77
2022/03/28 10:06:21;;;;;;;16.90;11.95;;;;;;;;;;5092243;28;20043;-77
2022/03/28 10:08:47;;;;;;;13.65;11.43;;;;;;;;;;5091855;28;20028;-77
2022/03/28 10:11:14;;;;;;;14.07;12.02;;;;;;;;;;5091629;28;20039;-76
2022/03/28 10:13:40;;;;;;;17.55;11.20;;;;;;;;;;5091774;28;20477;-77
2022/03/28 10:16:07;;;;;;;16.15;11.18;;;;;;;;;;5091619;28;20524;-76
2022/03/28 10:18:35;;;;;;;14.70;12.05;;;;;;;;;;5091388;28;20035;-77
2022/03/28 10:21:06;;;;;;;14.43;11.60;;;;;;;;;;5091404;28;20397;-77
2022/03/28 10:23:42;;;;;;;16.50;12.13;;;;;;;;;;5091426;28;20063;-77
2022/03/28 10:26:09;;;;;;;14.45;11.77;;;;;;;;;;5093199;28;20035;-77
2022/03/28 10:28:36;;;;;;;17.55;12.95;;;;;;;;;;5111529;28;20020;-76
2022/03/28 10:31:12;;;;;;;17.35;13.65;;;;;;;;;;5111634;28;20365;-77
2022/03/28 10:33:52;;;;;;;15.20;12.02;;;;;;;;;;5111529;28;20019;-76
2022/03/28 10:36:29;;;;;;;14.80;12.23;;;;;;;;;;5111683;28;20333;-76
2022/03/28 10:39:36;;;;;;;14.77;11.98;;;;;;;;;;5111528;28;20028;-76
2022/03/28 10:42:17;;;;;;;16.30;12.10;;;;;;;;;;5111784;28;20023;-76
2022/03/28 10:45:08;;;;;;;17.15;11.25;;;;;;;;;;5121540;28;20032;-77
2022/03/28 10:47:50;;;;;;;12.98;10.95;;;;;;;;;;5123961;27;20036;-76
2022/03/28 10:50:25;;;;;;;16.08;11.30;;;;;;;;;;5111555;27;20476;-76
2022/03/28 10:53:08;;;;;;;15.02;11.75;;;;;;;;;;5111497;27;20477;-75
2022/03/28 10:55:52;;;;;;;15.00;11.88;;;;;;;;;;5113886;27;20028;-76
2022/03/28 10:58:28;;;;;;;14.80;11.90;;;;;;;;;;5112308;27;20027;-75
2022/03/28 11:01:12;;;;;;;16.75;12.10;;;;;;;;;;5112411;27;20035;-76
2022/03/28 11:03:40;;;;;;;17.20;12.10;;;;;;;;;;5108999;27;20032;-77
2022/03/28 11:06:06;;;;;;;16.35;11.45;;;;;;;;;;5102959;28;20027;-74
2022/03/28 11:08:34;;;;;;;15.30;11.73;;;;;;;;;;5108696;28;20049;-74
2022/03/28 11:11:15;;;;;;;16.80;12.38;;;;;;;;;;5108181;28;20520;-75
2022/03/28 11:13:41;;;;;;;15.60;11.55;;;;;;;;;;5107890;28;20479;-73
2022/03/28 11:16:19;;;;;;;17.10;12.52;;;;;;;;;;5111921;27;20385;-76
2022/03/28 11:19:25;;;;;;;16.48;11.02;;;;;;;;;;5109995;28;20042;-78
2022/03/28 11:22:03;;;;;;;15.13;11.13;;;;;;;;;;5110404;28;20031;-77
2022/03/28 11:24:54;;;;;;;17.17;12.15;;;;;;;;;;5110926;28;20028;-77
2022/03/28 11:27:23;;;;;;;16.83;11.90;;;;;;;;;;5110636;28;20034;-77
2022/03/28 11:29:58;;;;;;;16.23;11.48;;;;;;;;;;5110226;28;20034;-77
2022/03/28 11:32:29;;;;;;;16.33;11.50;;;;;;;;;;5111010;28;20383;-77
2022/03/28 11:34:55;;;;;;;18.60;12.50;;;;;;;;;;5103306;28;20028;-78
2022/03/28 11:37:26;;;;;;;12.88;8.65;;;;;;;;;;5089094;28;20538;-78
2022/03/28 11:39:55;;;;;;;16.75;10.80;;;;;;;;;;5090370;28;20045;-78
2022/03/28 11:42:23;;;;;;;14.80;9.05;;;;;;;;;;5088973;28;20039;-78
2022/03/28 11:44:49;;;;;;;13.88;9.50;;;;;;;;;;5089633;28;20032;-78
2022/03/28 11:47:17;;;;;;;15.20;8.45;;;;;;;;;;5089862;28;20032;-77
2022/03/28 11:50:00;;;;;;;12.50;7.40;;;;;;;;;;5088201;28;20484;-78
2022/03/28 11:52:29;;;;;;;13.48;8.68;;;;;;;;;;5092437;28;20027;-79
2022/03/28 11:54:56;;;;;;;13.05;7.65;;;;;;;;;;5089845;28;20381;-78
2022/03/28 12:00:24;;;;;;;9.70;7.03;;;;;;;;;;5089942;28;20408;-78
2022/03/28 12:02:55;;;;;;;15.50;7.28;;;;;;;;;;5089653;27;20047;-77
2022/03/28 12:05:26;;;;;;;11.45;7.18;;;;;;;;;;5104907;27;20036;-78
2022/03/28 12:07:52;;;;;;;13.52;6.90;;;;;;;;;;5115182;27;20034;-79
2022/03/28 12:10:23;;;;;;;14.15;7.55;;;;;;;;;;5116537;27;20034;-77
2022/03/28 12:12:50;;;;;;;10.75;6.82;;;;;;;;;;5109916;28;20031;-78
2022/03/28 12:15:34;;;;;;;12.18;6.95;;;;;;;;;;5112603;27;20035;-80
2022/03/28 12:18:06;;;;;;;11.43;6.82;;;;;;;;;;5118772;27;20363;-77
2022/03/28 12:20:34;;;;;;;10.63;7.40;;;;;;;;;;5120401;27;20030;-77
2022/03/28 12:23:03;;;;;;;13.45;8.35;;;;;;;;;;5111362;28;20093;-79
2022/03/28 12:25:37;;;;;;;11.57;6.90;;;;;;;;;;5110416;28;20031;-81
2022/03/28 12:28:09;;;;;;;14.02;7.40;;;;;;;;;;5110168;28;20028;-81
2022/03/28 12:30:48;;;;;;;13.85;7.05;;;;;;;;;;5109046;28;20491;-78
2022/03/28 12:33:26;;;;;;;11.90;7.07;;;;;;;;;;5108271;28;20027;-78
2022/03/28 12:36:13;;;;;;;12.98;7.63;;;;;;;;;;5106524;28;20050;-79
2022/03/28 12:38:44;;;;;;;10.80;7.43;;;;;;;;;;5109051;28;20388;-76
2022/03/28 12:41:13;;;;;;;12.82;8.43;;;;;;;;;;5101761;28;20035;-76
2022/03/28 12:43:45;;;;;;;12.00;7.18;;;;;;;;;;5105838;28;20032;-78
2022/03/28 12:46:11;;;;;;;12.00;7.55;;;;;;;;;;5105265;28;20059;-77
2022/03/28 12:48:51;;;;;;;13.43;7.38;;;;;;;;;;5111151;28;20111;-76
2022/03/28 12:51:24;;;;;;;;;;;;;;;;;;5116264;27;20032;-77
2022/03/28 12:53:51;;;;;;;13.25;8.25;;;;;;;;;;5115429;28;19907;-78
2022/03/28 12:56:19;;;;;;;17.90;9.23;;;;;;;;;;5115424;28;20023;-78
2022/03/28 12:58:54;;;;;;;11.55;7.10;;;;;;;;;;5104411;28;20039;-78
2022/03/28 13:01:29;;;;;;;13.27;7.38;;;;;;;;;;5095267;28;20020;-77
2022/03/28 13:04:08;;;;;;;11.10;7.18;;;;;;;;;;5095040;28;20035;-77
2022/03/28 13:06:38;;;;;;;13.18;6.90;;;;;;;;;;5094896;28;20031;-78
2022/03/28 13:09:05;;;;;;;10.57;6.38;;;;;;;;;;5095472;28;20032;-77
2022/03/28 13:11:32;;;;;;;14.52;7.30;;;;;;;;;;5094098;28;20031;-77
2022/03/28 13:14:00;;;;;;;12.25;7.55;;;;;;;;;;5094380;28;20461;-76
2022/03/28 13:16:27;;;;;;;11.80;7.20;;;;;;;;;;5092071;28;20441;-77
2022/03/28 13:19:06;;;;;;;13.27;7.30;;;;;;;;;;5107289;27;20039;-77
2022/03/28 13:21:37;;;;;;;11.23;7.45;;;;;;;;;;5114089;28;20373;-76
2022/03/28 13:24:06;;;;;;;12.35;7.70;;;;;;;;;;5112509;28;20043;-76
2022/03/28 13:26:50;;;;;;;13.07;7.28;;;;;;;;;;5115385;28;20024;-77
2022/03/28 13:29:21;;;;;;;14.95;6.90;;;;;;;;;;5114888;28;20027;-77
2022/03/28 13:31:48;;;;;;;14.90;7.88;;;;;;;;;;5115657;28;20050;-76
2022/03/28 13:34:15;;;;;;;16.10;6.65;;;;;;;;;;5115955;28;20024;-77
2022/03/28 13:36:41;;;;;;;11.30;7.00;;;;;;;;;;5116051;28;20027;-76
2022/03/28 13:39:08;;;;;;;11.65;7.43;;;;;;;;;;5114441;28;20043;-77
2022/03/28 13:41:34;;;;;;;14.25;8.18;;;;;;;;;;5116280;28;20046;-76
2022/03/28 13:44:02;;;;;;;10.32;6.88;;;;;;;;;;5116239;28;20034;-76
2022/03/28 13:46:29;;;;;;;12.65;6.82;;;;;;;;;;5116247;28;20028;-76
2022/03/28 13:48:58;;;;;;;11.60;6.93;;;;;;;;;;5113777;28;20043;-76
2022/03/28 13:51:28;;;;;;;11.57;7.22;;;;;;;;;;5115766;28;20027;-76
2022/03/28 13:53:55;;;;;;;14.75;7.28;;;;;;;;;;5113916;28;20032;-75
2022/03/28 13:56:22;;;;;;;14.23;7.65;;;;;;;;;;5112357;28;20515;-76
2022/03/28 13:58:49;;;;;;;13.77;7.28;;;;;;;;;;5095036;28;20365;-76
2022/03/28 14:01:15;;;;;;;14.63;6.95;;;;;;;;;;5092035;28;20031;-76
2022/03/28 14:03:41;;;;;;;10.15;6.28;;;;;;;;;;5091755;28;20044;-75
2022/03/28 14:06:08;;;;;;;10.52;6.65;;;;;;;;;;5091693;28;20028;-76
2022/03/28 14:08:36;;;;;;;14.30;6.57;;;;;;;;;;5089968;28;20036;-76
2022/03/28 14:11:10;;;;;;;13.02;7.32;;;;;;;;;;5091710;28;20024;-77
2022/03/28 14:13:37;;;;;;;12.35;7.22;;;;;;;;;;5091639;28;20031;-78
2022/03/28 14:16:03;;;;;;;12.23;6.45;;;;;;;;;;5091648;28;20035;-79
2022/03/28 14:18:29;;;;;;;17.38;8.10;;;;;;;;;;5091374;28;20028;-79
2022/03/28 14:20:55;;;;;;;13.07;6.90;;;;;;;;;;5090134;28;20051;-77
2022/03/28 14:23:21;;;;;;;13.25;7.32;;;;;;;;;;5090044;28;20068;-77
2022/03/28 14:25:48;;;;;;;13.68;6.72;;;;;;;;;;5091525;28;20499;-77
2022/03/28 14:28:15;;;;;;;13.85;6.43;;;;;;;;;;5091238;28;20035;-78
2022/03/28 14:30:41;;;;;;;13.70;7.20;;;;;;;;;;5091360;28;20028;-78
2022/03/28 14:33:07;;;;;;;19.40;9.80;;;;;;;;;;5091702;28;20038;-77
2022/03/28 14:35:33;;;;;;;61.35;36.38;;;;;;;;;;5091243;28;20455;-78